createdAt,value
2022-11-21T00:00:58.832Z,39.10
2022-11-21T00:03:25.570Z,37.70
2022-11-21T00:05:52.183Z,35.47
2022-11-21T00:08:20.987Z,35.07
2022-11-21T00:10:48.471Z,36.67
2022-11-21T00:13:19.914Z,34.20
2022-11-21T00:15:47.773Z,42.50
2022-11-21T00:18:14.914Z,36.73
2022-11-21T00:20:42.510Z,39.10
2022-11-21T00:23:09.398Z,36.97
2022-11-21T00:25:36.798Z,38.33
2022-11-21T00:28:04.199Z,43.70
2022-11-21T00:30:30.838Z,39.13
2022-11-21T00:33:00.637Z,40.07
2022-11-21T00:35:27.819Z,36.90
2022-11-21T00:37:54.732Z,38.80
2022-11-21T00:40:21.480Z,39.23
2022-11-21T00:42:48.048Z,39.93
2022-11-21T00:45:18.376Z,43.00
2022-11-21T00:47:47.899Z,38.23
2022-11-21T00:50:14.500Z,40.80
2022-11-21T00:52:41.145Z,42.33
2022-11-21T00:55:08.113Z,40.47
2022-11-21T00:57:34.784Z,41.70
2022-11-21T01:00:01.449Z,40.93
2022-11-21T01:02:28.078Z,41.67
2022-11-21T01:04:54.742Z,41.07
2022-11-21T01:07:21.367Z,38.03
2022-11-21T01:09:48.235Z,40.10
2022-11-21T01:12:14.838Z,39.87
2022-11-21T01:14:41.418Z,37.03
2022-11-21T01:17:08.071Z,40.37
2022-11-21T01:19:34.926Z,39.07
2022-11-21T01:22:01.659Z,41.03
2022-11-21T01:24:28.673Z,40.97
2022-11-21T01:26:55.500Z,38.47
2022-11-21T01:29:22.191Z,37.87
2022-11-21T01:31:49.910Z,43.70
2022-11-21T01:34:17.120Z,43.03
2022-11-21T01:36:43.723Z,36.57
2022-11-21T01:39:11.335Z,41.37
2022-11-21T01:41:43.401Z,49.43
2022-11-21T01:44:22.749Z,45.13
2022-11-21T01:46:50.597Z,43.83
2022-11-21T01:49:25.627Z,48.03
2022-11-21T01:52:03.422Z,48.47
2022-11-21T01:54:32.990Z,44.67
2022-11-21T01:57:13.646Z,45.40
2022-11-21T01:59:55.503Z,46.67
2022-11-21T02:02:27.939Z,41.57
2022-11-21T02:04:56.678Z,42.70
2022-11-21T02:07:24.863Z,44.93
2022-11-21T02:09:59.039Z,48.30
2022-11-21T02:12:40.914Z,44.30
2022-11-21T02:15:08.376Z,42.97
2022-11-21T02:17:35.050Z,43.20
2022-11-21T02:20:23.515Z,44.63
2022-11-21T02:23:08.707Z,42.80
2022-11-21T02:25:38.302Z,45.47
2022-11-21T02:28:12.234Z,42.67
2022-11-21T02:30:40.562Z,45.27
2022-11-21T02:33:07.562Z,46.33
2022-11-21T02:35:34.565Z,46.57
2022-11-21T02:38:11.702Z,50.40
2022-11-21T02:40:44.128Z,53.17
2022-11-21T02:43:14.884Z,49.30
2022-11-21T02:45:43.642Z,44.57
2022-11-21T02:48:10.896Z,51.47
2022-11-21T02:50:39.717Z,45.33
2022-11-21T02:53:08.578Z,52.57
2022-11-21T02:55:35.582Z,44.67
2022-11-21T02:58:05.164Z,50.53
2022-11-21T03:00:33.899Z,54.23
2022-11-21T03:03:00.817Z,49.03
2022-11-21T03:05:27.750Z,49.30
2022-11-21T03:07:54.435Z,52.07
2022-11-21T03:10:21.102Z,48.63
2022-11-21T03:12:47.856Z,49.70
2022-11-21T03:15:15.567Z,56.00
2022-11-21T03:17:42.777Z,55.73
2022-11-21T03:20:10.564Z,53.73
2022-11-21T03:22:37.336Z,54.00
2022-11-21T03:25:04.194Z,55.20
2022-11-21T03:27:30.798Z,57.23
2022-11-21T03:29:57.399Z,51.13
2022-11-21T03:32:24.007Z,52.40
2022-11-21T03:34:50.640Z,51.90
2022-11-21T03:37:17.269Z,51.33
2022-11-21T03:39:43.916Z,57.50
2022-11-21T03:42:10.544Z,54.33
2022-11-21T03:44:37.152Z,53.73
2022-11-21T03:47:03.873Z,58.27
2022-11-21T03:49:30.617Z,55.50
2022-11-21T03:51:57.231Z,60.07
2022-11-21T03:54:26.567Z,53.00
2022-11-21T03:56:53.846Z,54.60
2022-11-21T03:59:20.555Z,57.23
2022-11-21T04:01:47.270Z,55.63
2022-11-21T04:04:13.935Z,56.67
2022-11-21T04:06:40.594Z,54.43
2022-11-21T04:09:07.314Z,51.37
2022-11-21T04:11:34.074Z,58.47
2022-11-21T04:14:00.736Z,60.67
2022-11-21T04:16:27.364Z,60.67
2022-11-21T04:18:53.996Z,50.03
2022-11-21T04:21:20.850Z,56.80
2022-11-21T04:23:47.507Z,55.77
2022-11-21T04:26:14.164Z,55.63
2022-11-21T04:28:40.804Z,61.40
2022-11-21T04:31:11.048Z,59.30
2022-11-21T04:33:39.389Z,58.77
2022-11-21T04:36:08.223Z,56.93
2022-11-21T04:38:34.962Z,56.10
2022-11-21T04:41:01.633Z,56.90
2022-11-21T04:43:28.294Z,56.47
2022-11-21T04:45:54.954Z,59.23
2022-11-21T04:48:21.807Z,54.53
2022-11-21T04:50:48.577Z,55.23
2022-11-21T04:53:15.240Z,52.37
2022-11-21T04:55:41.895Z,52.77
2022-11-21T04:58:08.582Z,46.37
2022-11-21T05:00:35.568Z,47.73
2022-11-21T05:03:03.978Z,48.97
2022-11-21T05:05:30.818Z,49.73
2022-11-21T05:07:57.429Z,48.90
2022-11-21T05:10:24.781Z,50.67
2022-11-21T05:13:17.930Z,56.90
2022-11-21T05:15:45.027Z,49.67
2022-11-21T05:18:11.829Z,51.50
2022-11-21T05:20:38.510Z,48.73
2022-11-21T05:23:05.611Z,49.40
2022-11-21T05:25:32.244Z,49.03
2022-11-21T05:27:58.829Z,54.43
2022-11-21T05:30:25.484Z,52.43
2022-11-21T05:32:52.096Z,50.93
2022-11-21T05:35:18.963Z,52.10
2022-11-21T05:37:45.612Z,50.23
2022-11-21T05:40:12.731Z,51.13
2022-11-21T05:42:59.577Z,52.53
2022-11-21T05:45:27.199Z,46.83
2022-11-21T05:47:53.846Z,49.63
2022-11-21T05:50:20.495Z,48.00
2022-11-21T05:52:47.191Z,48.60
2022-11-21T05:55:13.808Z,46.93
2022-11-21T05:57:40.690Z,44.47
2022-11-21T06:00:08.258Z,48.73
2022-11-21T06:02:53.379Z,47.43
2022-11-21T06:05:20.812Z,48.27
2022-11-21T06:07:47.683Z,45.57
2022-11-21T06:10:17.724Z,48.63
2022-11-21T06:12:47.890Z,43.00
2022-11-21T06:17:55.699Z,43.77
2022-11-21T06:20:22.369Z,45.90
2022-11-21T06:23:00.987Z,48.67
2022-11-21T06:25:27.863Z,50.27
2022-11-21T06:27:54.802Z,50.70
2022-11-21T06:30:22.452Z,53.67
2022-11-21T06:32:49.410Z,51.43
2022-11-21T06:35:16.421Z,48.80
2022-11-21T06:37:48.473Z,53.30
2022-11-21T06:40:17.863Z,52.23
2022-11-21T06:42:45.285Z,56.53
2022-11-21T06:45:14.738Z,57.90
2022-11-21T06:47:42.183Z,51.70
2022-11-21T06:50:11.760Z,53.93
2022-11-21T06:52:39.003Z,51.97
2022-11-21T06:55:17.247Z,46.33
2022-11-21T06:57:45.365Z,43.63
2022-11-21T07:00:12.857Z,43.30
2022-11-21T07:02:39.759Z,48.97
2022-11-21T07:05:07.055Z,41.93
2022-11-21T07:07:33.929Z,50.27
2022-11-21T07:10:01.338Z,44.57
2022-11-21T07:12:46.829Z,40.37
2022-11-21T07:15:15.767Z,40.33
2022-11-21T07:17:42.974Z,40.83
2022-11-21T07:20:17.951Z,42.87
2022-11-21T07:22:46.275Z,41.83
2022-11-21T07:25:12.978Z,43.13
2022-11-21T07:27:39.904Z,44.93
2022-11-21T07:30:07.436Z,38.57
2022-11-21T07:32:42.491Z,42.30
2022-11-21T07:35:13.397Z,39.43
2022-11-21T07:37:40.933Z,41.93
2022-11-21T07:40:09.456Z,38.77
2022-11-21T07:42:36.525Z,43.53
2022-11-21T07:45:04.136Z,43.43
2022-11-21T07:47:32.192Z,44.43
2022-11-21T07:49:58.799Z,42.43
2022-11-21T07:52:26.355Z,42.80
2022-11-21T07:54:53.061Z,39.00
2022-11-21T07:57:19.712Z,43.40
2022-11-21T07:59:46.694Z,64.00
2022-11-21T08:02:21.305Z,54.07
2022-11-21T08:04:48.711Z,62.93
2022-11-21T08:07:20.866Z,69.50
2022-11-21T08:09:47.716Z,85.90
2022-11-21T08:12:15.187Z,106.93
2022-11-21T08:14:41.930Z,81.63
2022-11-21T08:17:08.606Z,62.57
2022-11-21T08:19:35.417Z,65.67
2022-11-21T08:22:02.165Z,84.30
2022-11-21T08:24:28.891Z,67.73
2022-11-21T08:26:55.652Z,66.70
2022-11-21T08:29:22.372Z,65.23
2022-11-21T08:31:48.972Z,58.60
2022-11-21T08:34:16.511Z,59.27
2022-11-21T08:36:43.330Z,57.90
2022-11-21T08:39:10.210Z,57.60
2022-11-21T08:41:55.591Z,45.73
2022-11-21T08:44:22.211Z,58.93
2022-11-21T08:46:49.147Z,57.83
2022-11-21T08:49:15.775Z,56.83
2022-11-21T08:51:43.060Z,67.47
2022-11-21T08:54:09.716Z,59.93
2022-11-21T08:56:36.388Z,59.50
2022-11-21T08:59:03.485Z,58.73
2022-11-21T09:01:30.761Z,64.27
2022-11-21T09:03:57.359Z,63.23
2022-11-21T09:06:23.943Z,68.63
2022-11-21T09:08:50.569Z,62.00
2022-11-21T09:11:17.250Z,59.03
2022-11-21T09:13:44.109Z,64.67
2022-11-21T09:16:30.674Z,58.57
2022-11-21T09:18:57.212Z,61.90
2022-11-21T09:21:23.824Z,56.40
2022-11-21T09:23:50.548Z,53.87
2022-11-21T09:26:17.704Z,52.83
2022-11-21T09:28:44.337Z,50.57
2022-11-21T09:31:11.155Z,51.73
2022-11-21T09:33:37.759Z,45.50
2022-11-21T09:36:04.769Z,47.33
2022-11-21T09:38:31.477Z,45.27
2022-11-21T09:41:51.857Z,41.77
2022-11-21T09:44:30.861Z,44.40
2022-11-21T09:47:08.011Z,34.53
2022-11-21T09:49:41.527Z,37.33
2022-11-21T09:52:13.244Z,36.83
2022-11-21T09:54:48.546Z,29.20
2022-11-21T09:57:19.057Z,31.17
2022-11-21T09:59:48.776Z,25.83
2022-11-21T10:02:18.327Z,29.77
2022-11-21T10:04:47.185Z,23.40
2022-11-21T10:07:32.507Z,24.73
2022-11-21T10:10:37.088Z,24.37
2022-11-21T10:13:46.371Z,23.10
2022-11-21T10:16:28.899Z,23.00
2022-11-21T10:19:28.627Z,21.50
2022-11-21T10:22:19.535Z,23.23
2022-11-21T10:24:57.597Z,24.03
2022-11-21T10:27:33.299Z,24.73
2022-11-21T10:30:05.010Z,25.20
2022-11-21T10:32:41.248Z,22.87
2022-11-21T10:35:20.862Z,24.90
2022-11-21T10:37:54.059Z,26.70
2022-11-21T10:40:36.137Z,25.70
2022-11-21T10:43:50.233Z,24.33
2022-11-21T10:46:17.019Z,28.70
2022-11-21T10:48:55.353Z,39.20
2022-11-21T10:51:37.136Z,21.97
2022-11-21T10:54:28.910Z,29.17
2022-11-21T10:57:14.752Z,24.13
2022-11-21T10:59:41.538Z,20.07
2022-11-21T11:02:26.767Z,22.57
2022-11-21T11:05:21.752Z,30.80
2022-11-21T11:08:02.483Z,22.00
2022-11-21T11:10:30.560Z,27.97
2022-11-21T11:13:44.471Z,24.63
2022-11-21T11:16:04.415Z,30.43
2022-11-21T11:18:37.681Z,21.77
2022-11-21T11:21:18.109Z,20.00
2022-11-21T11:23:46.945Z,17.02
2022-11-21T11:26:31.485Z,14.10
2022-11-21T11:29:30.383Z,22.65
2022-11-21T11:32:21.682Z,14.43
2022-11-21T11:35:05.114Z,12.88
2022-11-21T11:37:40.806Z,11.45
2022-11-21T11:40:34.632Z,11.27
2022-11-21T11:43:29.029Z,13.27
2022-11-21T11:46:40.408Z,17.15
2022-11-21T11:49:27.784Z,11.13
2022-11-21T11:51:59.218Z,12.52
2022-11-21T11:54:36.773Z,11.00
2022-11-21T11:57:04.456Z,14.90
2022-11-21T11:59:46.991Z,9.85
2022-11-21T12:02:28.038Z,10.38
2022-11-21T12:05:02.811Z,10.80
2022-11-21T12:10:59.971Z,10.52
2022-11-21T12:13:28.225Z,11.20
2022-11-21T12:16:04.059Z,11.70
2022-11-21T12:19:11.612Z,10.52
2022-11-21T12:21:38.737Z,16.13
2022-11-21T12:24:08.008Z,10.98
2022-11-21T12:26:57.020Z,11.02
2022-11-21T12:29:32.398Z,11.88
2022-11-21T12:32:14.709Z,20.17
2022-11-21T12:35:00.333Z,12.57
2022-11-21T12:37:43.754Z,10.60
2022-11-21T12:40:38.144Z,11.57
2022-11-21T12:43:14.717Z,10.93
2022-11-21T12:46:09.522Z,9.93
2022-11-21T12:49:10.052Z,10.20
2022-11-21T12:52:16.891Z,11.38
2022-11-21T12:55:02.609Z,9.80
2022-11-21T12:57:39.258Z,9.50
2022-11-21T13:00:18.415Z,14.07
2022-11-21T13:03:04.628Z,11.43
2022-11-21T13:05:40.463Z,9.07
2022-11-21T13:08:13.788Z,9.98
2022-11-21T13:11:29.615Z,9.90
2022-11-21T13:14:29.030Z,9.88
2022-11-21T13:17:19.882Z,9.13
2022-11-21T13:20:05.338Z,9.43
2022-11-21T13:22:38.199Z,9.60
2022-11-21T13:25:40.902Z,12.38
2022-11-21T13:28:13.881Z,9.43
2022-11-21T13:30:47.728Z,11.52
2022-11-21T13:33:37.460Z,12.68
2022-11-21T13:36:11.363Z,11.60
2022-11-21T13:38:52.888Z,14.73
2022-11-21T13:41:53.500Z,13.32
2022-11-21T13:44:32.638Z,13.50
2022-11-21T13:47:05.395Z,14.65
2022-11-21T13:49:43.220Z,17.73
2022-11-21T13:52:18.895Z,16.40
2022-11-21T13:55:16.708Z,14.60
2022-11-21T13:58:02.602Z,15.52
2022-11-21T14:00:51.780Z,19.23
2022-11-21T14:03:53.782Z,16.13
2022-11-21T14:06:43.237Z,19.08
2022-11-21T14:09:23.781Z,15.75
2022-11-21T14:12:21.271Z,13.55
2022-11-21T14:14:51.580Z,12.77
2022-11-21T14:17:51.641Z,12.95
2022-11-21T14:20:28.062Z,14.30
2022-11-21T14:22:55.126Z,11.38
2022-11-21T14:25:41.103Z,10.88
2022-11-21T14:28:16.806Z,12.00
2022-11-21T14:30:44.613Z,12.52
2022-11-21T14:33:35.193Z,12.18
2022-11-21T14:36:26.480Z,13.38
2022-11-21T14:39:28.951Z,12.18
2022-11-21T14:41:45.135Z,12.90
2022-11-21T14:44:11.889Z,12.93
2022-11-21T14:46:40.854Z,13.82
2022-11-21T14:49:16.788Z,15.77
2022-11-21T14:51:51.775Z,18.07
2022-11-21T14:57:42.415Z,14.80
2022-11-21T15:00:29.892Z,24.40
2022-11-21T15:02:59.279Z,18.23
2022-11-21T15:06:00.337Z,17.53
2022-11-21T15:08:53.773Z,19.03
2022-11-21T15:11:10.624Z,24.27
2022-11-21T15:13:58.632Z,23.00
2022-11-21T15:16:24.709Z,19.27
2022-11-21T15:18:51.274Z,21.37
2022-11-21T15:21:17.865Z,18.63
2022-11-21T15:23:45.363Z,20.60
2022-11-21T15:26:33.196Z,21.97
2022-11-21T15:29:01.096Z,20.67
2022-11-21T15:31:28.078Z,23.53
2022-11-21T15:37:11.842Z,31.20
2022-11-21T15:39:44.516Z,27.07
2022-11-21T15:42:33.279Z,25.00
2022-11-21T15:45:00.719Z,25.00
2022-11-21T15:47:27.838Z,23.63
2022-11-21T15:49:54.685Z,22.93
2022-11-21T15:52:21.702Z,24.63
2022-11-21T15:54:48.481Z,25.03
2022-11-21T15:57:16.991Z,27.90
2022-11-21T15:59:44.553Z,25.87
2022-11-21T16:02:14.043Z,24.57
2022-11-21T16:04:43.659Z,25.27
2022-11-21T16:07:10.564Z,25.50
2022-11-21T16:09:38.532Z,27.00
2022-11-21T16:12:05.555Z,25.03
2022-11-21T16:14:32.348Z,25.57
2022-11-21T16:17:04.723Z,25.27
2022-11-21T16:19:31.844Z,27.40
2022-11-21T16:21:58.572Z,26.93
2022-11-21T16:24:25.155Z,29.37
2022-11-21T16:26:54.606Z,27.43
2022-11-21T16:29:21.454Z,31.83
2022-11-21T16:31:50.275Z,32.13
2022-11-21T16:34:20.105Z,32.27
2022-11-21T16:36:46.752Z,31.63
2022-11-21T16:39:18.018Z,35.43
2022-11-21T16:41:46.575Z,36.40
2022-11-21T16:44:14.894Z,39.50
2022-11-21T16:46:43.420Z,50.23
2022-11-21T16:49:10.414Z,37.93
2022-11-21T16:51:36.992Z,36.70
2022-11-21T16:54:08.511Z,37.53
2022-11-21T16:56:35.884Z,38.13
2022-11-21T16:59:02.541Z,36.80
2022-11-21T17:01:29.245Z,38.20
2022-11-21T17:03:55.939Z,40.10
2022-11-21T17:06:27.297Z,40.93
2022-11-21T17:08:54.142Z,40.87
2022-11-21T17:11:28.289Z,38.43
2022-11-21T17:13:59.396Z,42.00
2022-11-21T17:16:26.546Z,41.10
2022-11-21T17:18:54.621Z,45.00
2022-11-21T17:21:32.618Z,46.17
2022-11-21T17:23:59.458Z,48.00
2022-11-21T17:26:28.642Z,43.03
2022-11-21T17:29:00.361Z,41.37
2022-11-21T17:31:28.257Z,41.47
2022-11-21T17:34:00.866Z,42.63
2022-11-21T17:36:33.211Z,45.03
2022-11-21T17:39:00.278Z,46.13
2022-11-21T17:41:27.325Z,44.10
2022-11-21T17:43:56.018Z,51.13
2022-11-21T17:46:25.463Z,43.47
2022-11-21T17:48:57.119Z,47.63
2022-11-21T17:51:30.104Z,45.53
2022-11-21T17:53:57.513Z,49.80
2022-11-21T17:56:26.720Z,45.13
2022-11-21T17:58:53.861Z,46.73
2022-11-21T18:01:22.093Z,46.30
2022-11-21T18:03:57.731Z,47.57
2022-11-21T18:06:26.485Z,43.57
2022-11-21T18:08:53.331Z,46.83
2022-11-21T18:11:21.874Z,46.73
2022-11-21T18:13:49.661Z,49.90
2022-11-21T18:16:19.513Z,48.87
2022-11-21T18:18:47.040Z,48.07
2022-11-21T18:21:19.811Z,54.03
2022-11-21T18:23:47.212Z,47.13
2022-11-21T18:26:23.242Z,48.30
2022-11-21T18:29:07.259Z,56.67
2022-11-21T18:31:39.464Z,49.70
2022-11-21T18:34:06.807Z,51.10
2022-11-21T18:36:33.960Z,54.77
2022-11-21T18:39:07.225Z,54.40
2022-11-21T18:41:38.378Z,53.33
2022-11-21T18:44:06.553Z,54.17
2022-11-21T18:46:36.444Z,49.73
2022-11-21T18:49:06.836Z,51.90
2022-11-21T18:51:34.898Z,48.83
2022-11-21T18:54:08.523Z,52.93
2022-11-21T18:56:36.671Z,53.13
2022-11-21T18:59:06.929Z,52.90
2022-11-21T19:01:36.573Z,54.60
2022-11-21T19:04:04.078Z,56.20
2022-11-21T19:06:31.701Z,56.40
2022-11-21T19:08:58.945Z,56.40
2022-11-21T19:11:29.773Z,58.23
2022-11-21T19:14:00.940Z,57.07
2022-11-21T19:16:31.289Z,52.73
2022-11-21T19:21:46.016Z,54.17
2022-11-21T19:24:14.779Z,55.20
2022-11-21T19:26:41.906Z,54.70
2022-11-21T19:29:09.415Z,52.10
2022-11-21T19:31:40.987Z,53.10
2022-11-21T19:34:09.787Z,56.67
2022-11-21T19:36:36.671Z,55.27
2022-11-21T19:39:03.585Z,51.73
2022-11-21T19:41:30.874Z,53.07
2022-11-21T19:43:59.482Z,54.77
2022-11-21T19:46:37.897Z,58.23
2022-11-21T19:49:06.392Z,51.90
2022-11-21T19:51:36.700Z,56.07
2022-11-21T19:54:05.721Z,55.47
2022-11-21T19:56:32.945Z,53.70
2022-11-21T19:58:59.939Z,59.33
2022-11-21T20:01:28.640Z,64.37
2022-11-21T20:04:00.326Z,55.60
2022-11-21T20:06:31.372Z,56.40
2022-11-21T20:09:09.500Z,64.47
2022-11-21T20:11:40.587Z,55.20
2022-11-21T20:14:07.794Z,58.70
2022-11-21T20:16:37.072Z,60.40
2022-11-21T20:19:07.003Z,59.10
2022-11-21T20:21:34.106Z,60.10
2022-11-21T20:24:00.992Z,61.93
2022-11-21T20:26:28.349Z,66.00
2022-11-21T20:28:55.521Z,64.33
2022-11-21T20:31:34.119Z,67.53
2022-11-21T20:34:04.558Z,58.37
2022-11-21T20:36:33.445Z,64.53
2022-11-21T20:39:03.829Z,62.43
2022-11-21T20:41:32.777Z,61.17
2022-11-21T20:46:49.198Z,65.67
2022-11-21T20:49:16.275Z,68.27
2022-11-21T20:54:33.043Z,73.20
2022-11-21T20:56:59.872Z,68.43
2022-11-21T20:59:27.477Z,69.00
2022-11-21T21:01:54.587Z,60.13
2022-11-21T21:04:21.363Z,64.73
2022-11-21T21:06:48.207Z,70.90
2022-11-21T21:09:14.903Z,68.47
2022-11-21T21:11:57.193Z,63.80
2022-11-21T21:14:23.791Z,61.30
2022-11-21T21:16:50.744Z,62.47
2022-11-21T21:19:17.949Z,63.93
2022-11-21T21:21:45.037Z,61.77
2022-11-21T21:24:12.635Z,62.50
2022-11-21T21:26:45.855Z,63.67
2022-11-21T21:29:19.513Z,63.60
2022-11-21T21:31:51.214Z,59.93
2022-11-21T21:34:19.124Z,56.50
2022-11-21T21:36:45.800Z,57.90
2022-11-21T21:39:12.558Z,63.03
2022-11-21T21:41:45.771Z,63.97
2022-11-21T21:44:12.746Z,65.90
2022-11-21T21:46:39.510Z,55.00
2022-11-21T21:49:06.172Z,56.37
2022-11-21T21:51:32.977Z,53.90
2022-11-21T21:54:00.183Z,54.70
2022-11-21T21:56:28.699Z,57.23
2022-11-21T21:58:57.581Z,55.07
2022-11-21T22:01:26.645Z,58.30
2022-11-21T22:03:55.360Z,55.20
2022-11-21T22:06:22.013Z,57.43
2022-11-21T22:08:49.423Z,59.53
2022-11-21T22:11:24.795Z,57.77
2022-11-21T22:13:54.927Z,63.10
2022-11-21T22:16:21.636Z,56.03
2022-11-21T22:18:48.247Z,57.27
2022-11-21T22:21:14.857Z,61.77
2022-11-21T22:24:02.367Z,59.63
2022-11-21T22:26:29.011Z,58.40
2022-11-21T22:28:55.958Z,59.33
2022-11-21T22:31:22.563Z,61.40
2022-11-21T22:33:49.140Z,60.40
2022-11-21T22:36:19.247Z,56.43
2022-11-21T22:38:46.188Z,54.97
2022-11-21T22:41:23.943Z,59.27
2022-11-21T22:43:55.479Z,55.10
2022-11-21T22:46:22.574Z,51.30
2022-11-21T22:48:49.400Z,55.77
2022-11-21T22:51:25.614Z,53.10
2022-11-21T22:53:52.705Z,50.23
2022-11-21T22:56:21.567Z,55.57
2022-11-21T22:58:49.104Z,54.33
2022-11-21T23:01:26.331Z,48.73
2022-11-21T23:03:53.247Z,48.60
2022-11-21T23:06:24.622Z,49.60
2022-11-21T23:08:52.225Z,45.97
2022-11-21T23:11:24.380Z,50.30
2022-11-21T23:13:51.401Z,43.27
2022-11-21T23:16:18.554Z,40.97
2022-11-21T23:18:46.890Z,42.90
2022-11-21T23:21:14.218Z,44.20
2022-11-21T23:23:41.291Z,47.80
2022-11-21T23:26:08.231Z,42.17
2022-11-21T23:28:34.997Z,37.10
2022-11-21T23:31:01.769Z,38.63
2022-11-21T23:33:28.710Z,33.03
2022-11-21T23:35:55.304Z,39.67
2022-11-21T23:38:21.965Z,35.47
2022-11-21T23:40:49.632Z,36.53
2022-11-21T23:43:18.809Z,36.90
2022-11-21T23:45:52.684Z,35.70
2022-11-21T23:48:20.153Z,38.23
2022-11-21T23:50:47.870Z,35.23
2022-11-21T23:53:14.476Z,36.93
2022-11-21T23:55:42.222Z,33.40
2022-11-21T23:58:08.859Z,37.13
